Isla Diego Ramirez, Chile
Current Conditions -  °F | °C
As of 12:00 PM on Sunday 23 Nov 2014 (Local Time) from SAWH Reporting Station
Rain Showers Rain Showers  
Wind Chill: 45°   Ceiling: 8000
Heat Index: 48°   Visibility: 6mi
Dew Point: 28°   Wind: 7mph
Humidity: 46%   Direction: 140°SE
Pressure: 29.18"   Gusts: NA
Location:  56.6°S, 68.72°W
Report Text: SAWH 231600Z 14006KT 9999 VCSH FEW040SCT050 BKN080 09/M02 Q0988
Loading
Personal Weather Stations






























Interactive Weather Map New forecast layout! Learn more

10-Day Weather Forecast

Advertisements
Track Severe Weather on mobile